Time;durP1;ratioP1;P1;durP2;ratioP2;P2;SDS_P1;SDS_P2;PMS_P1;PMS_P2;Temp;Humidity;BMP_temperature;BMP_pressure;BME280_temperature;BME280_humidity;BME280_pressure;Samples;Min_cycle;Max_cycle;Signal;HPM_P1;HPM_P2
2023/03/25 00:00:47;;;;;;;;;;;;;;;7.23;100.00;96274.16;5020487;28;20382;-73
2023/03/25 00:03:13;;;;;;;;;;;;;;;7.21;100.00;96281.13;5015468;28;19925;-72
2023/03/25 00:05:39;;;;;;;;;;;;;;;7.21;100.00;96295.50;5018917;28;19972;-72
2023/03/25 00:08:04;;;;;;;;;;;;;;;7.28;100.00;96301.13;5018103;28;19924;-70
2023/03/25 00:10:30;;;;;;;;;;;;;;;7.41;100.00;96299.06;5023806;28;19987;-73
2023/03/25 00:12:55;;;;;;;;;;;;;;;7.52;100.00;96298.53;5024301;28;19921;-73
2023/03/25 00:15:21;;;;;;;;;;;;;;;7.45;100.00;96290.97;5019273;28;20654;-73
2023/03/25 00:17:46;;;;;;;;;;;;;;;7.43;100.00;96285.88;5025606;28;19924;-73
2023/03/25 00:20:12;;;;;;;;;;;;;;;7.38;100.00;96272.56;5016863;28;19921;-72
2023/03/25 00:22:42;;;;;;;;;;;;;;;7.08;100.00;96262.16;5024003;28;19921;-70
2023/03/25 00:25:09;;;;;;;;;;;;;;;6.99;100.00;96258.84;5018461;28;19928;-73
2023/03/25 00:27:35;;;;;;;;;;;;;;;6.93;100.00;96254.78;5023179;28;19920;-72
2023/03/25 00:30:01;;;;;;;;;;;;;;;6.97;100.00;96252.97;5034852;28;19968;-73
2023/03/25 00:32:28;;;;;;;;;;;;;;;6.95;100.00;96249.81;5030099;28;19925;-74
2023/03/25 00:34:54;;;;;;;;;;;;;;;6.97;100.00;96252.16;5024130;28;19954;-75
2023/03/25 00:37:20;;;;;;;;;;;;;;;6.96;100.00;96251.38;5018054;28;19921;-75
2023/03/25 00:39:46;;;;;;;;;;;;;;;6.92;100.00;96245.06;5022309;28;20274;-73
2023/03/25 00:42:14;;;;;;;;;;;;;;;6.84;100.00;96237.84;5016975;28;19917;-74
2023/03/25 00:44:39;;;;;;;;;;;;;;;6.83;100.00;96239.78;5023407;28;20433;-74
2023/03/25 00:47:05;;;;;;;;;;;;;;;6.76;100.00;96253.25;5018026;28;19929;-72
2023/03/25 00:49:30;;;;;;;;;;;;;;;6.83;100.00;96261.56;5003320;28;19921;-71
2023/03/25 00:51:55;;;;;;;;;;;;;;;6.75;100.00;96259.81;5003547;28;19917;-71
2023/03/25 00:54:21;;;;;;;;;;;;;;;6.70;100.00;96255.44;4996735;28;20638;-73
2023/03/25 00:56:47;;;;;;;;;;;;;;;6.62;100.00;96258.34;5018395;28;20007;-72
2023/03/25 00:59:12;;;;;;;;;;;;;;;6.64;100.00;96248.66;5019461;28;20012;-70
2023/03/25 01:01:38;;;;;;;;;;;;;;;6.66;100.00;96265.47;5022925;28;20370;-71
2023/03/25 01:04:04;;;;;;;;;;;;;;;6.70;100.00;96274.50;5017106;28;19917;-70
2023/03/25 01:06:33;;;;;;;;;;;;;;;6.68;100.00;96289.56;5026853;28;19921;-72
2023/03/25 01:09:00;;;;;;;;;;;;;;;6.73;100.00;96274.94;5005545;28;19921;-71
2023/03/25 01:11:27;;;;;;;;;;;;;;;6.72;100.00;96286.94;4993220;28;19917;-72
2023/03/25 01:13:53;;;;;;;;;;;;;;;6.65;100.00;96274.75;5004187;28;19925;-71
2023/03/25 01:16:19;;;;;;;;;;;;;;;6.61;100.00;96267.63;4999018;28;20267;-72
2023/03/25 01:18:44;;;;;;;;;;;;;;;6.73;100.00;96269.47;5002487;28;19922;-71
2023/03/25 01:21:09;;;;;;;;;;;;;;;6.74;100.00;96274.56;4996783;28;19928;-70
2023/03/25 01:23:35;;;;;;;;;;;;;;;6.75;100.00;96246.19;5003219;28;19921;-72
2023/03/25 01:26:00;;;;;;;;;;;;;;;6.79;100.00;96238.13;5002972;28;20290;-72
2023/03/25 01:28:26;;;;;;;;;;;;;;;6.77;100.00;96240.41;5011866;28;19918;-72
2023/03/25 01:30:58;;;;;;;;;;;;;;;6.81;100.00;96225.75;5002811;28;19944;-72
2023/03/25 01:33:24;;;;;;;;;;;;;;;6.89;100.00;96243.03;4995998;28;20027;-73
2023/03/25 01:35:49;;;;;;;;;;;;;;;6.86;100.00;96239.09;5002691;28;19961;-70
2023/03/25 01:38:14;;;;;;;;;;;;;;;6.78;100.00;96236.56;4998228;28;20367;-73
2023/03/25 01:40:40;;;;;;;;;;;;;;;6.79;100.00;96241.66;5002723;28;19955;-72
2023/03/25 01:43:08;;;;;;;;;;;;;;;6.81;100.00;96228.47;4997902;28;19921;-73
2023/03/25 01:45:33;;;;;;;;;;;;;;;6.78;100.00;96225.66;5002357;28;19922;-72
2023/03/25 01:48:09;;;;;;;;;;;;;;;6.87;100.00;96220.81;5000384;28;19917;-72
2023/03/25 01:50:36;;;;;;;;;;;;;;;6.84;100.00;96213.34;5012751;28;19925;-73
2023/03/25 01:53:03;;;;;;;;;;;;;;;6.82;100.00;96226.53;5021163;28;19921;-72
2023/03/25 01:55:32;;;;;;;;;;;;;;;6.83;100.00;96233.56;5000918;28;19921;-72
2023/03/25 01:57:58;;;;;;;;;;;;;;;6.64;100.00;96226.13;4996475;28;20016;-74
2023/03/25 02:00:25;;;;;;;;;;;;;;;6.64;100.00;96231.56;4996145;28;20496;-72
2023/03/25 02:02:53;;;;;;;;;;;;;;;6.62;100.00;96222.97;5015235;28;19917;-74
2023/03/25 02:05:26;;;;;;;;;;;;;;;6.65;100.00;96235.88;5016076;28;19985;-73
2023/03/25 02:07:53;;;;;;;;;;;;;;;6.60;100.00;96234.19;5016382;28;19917;-73
2023/03/25 02:10:19;;;;;;;;;;;;;;;6.55;100.00;96237.19;5010233;28;19921;-73
2023/03/25 02:12:45;;;;;;;;;;;;;;;6.54;100.00;96237.56;5002092;28;19956;-72
2023/03/25 02:15:13;;;;;;;;;;;;;;;6.54;100.00;96241.06;4996431;28;19917;-73
2023/03/25 02:17:51;;;;;;;;;;;;;;;6.51;100.00;96239.81;5001131;28;19917;-72
2023/03/25 02:20:22;;;;;;;;;;;;;;;6.45;100.00;96240.44;4996581;28;20381;-73
2023/03/25 02:22:53;;;;;;;;;;;;;;;6.39;100.00;96234.47;5001639;28;20404;-72
2023/03/25 02:25:34;;;;;;;;;;;;;;;6.44;100.00;96228.75;4979367;28;19921;-72
2023/03/25 02:28:10;;;;;;;;;;;;;;;6.48;100.00;96235.09;5001484;28;19917;-72
2023/03/25 02:30:42;;;;;;;;;;;;;;;6.47;100.00;96236.22;5002634;28;19921;-72
2023/03/25 02:33:10;;;;;;;;;;;;;;;6.45;100.00;96235.00;4996787;28;20301;-70
2023/03/25 02:35:48;;;;;;;;;;;;;;;6.42;100.00;96241.91;5001227;28;19956;-73
2023/03/25 02:38:13;;;;;;;;;;;;;;;6.45;100.00;96241.22;4996377;28;19944;-70
2023/03/25 02:40:39;;;;;;;;;;;;;;;6.41;100.00;96244.97;4984048;28;20032;-72
2023/03/25 02:43:08;;;;;;;;;;;;;;;6.57;100.00;96234.91;4997394;28;19929;-70
2023/03/25 02:45:36;;;;;;;;;;;;;;;6.66;100.00;96232.81;4983384;28;20379;-71
2023/03/25 02:48:05;;;;;;;;;;;;;;;6.62;100.00;96239.28;5011362;28;19964;-71
2023/03/25 02:50:30;;;;;;;;;;;;;;;6.67;100.00;96242.53;5003553;28;19928;-70
2023/03/25 02:53:00;;;;;;;;;;;;;;;6.76;100.00;96245.06;5020981;28;19929;-71
2023/03/25 02:55:29;;;;;;;;;;;;;;;6.85;100.00;96253.06;5000238;28;19918;-71
2023/03/25 02:57:56;;;;;;;;;;;;;;;6.95;100.00;96249.81;5001228;28;19983;-72
2023/03/25 03:00:23;;;;;;;;;;;;;;;6.99;100.00;96255.34;4978067;28;19963;-71
2023/03/25 03:02:58;;;;;;;;;;;;;;;7.02;100.00;96252.69;5001517;28;19933;-71
2023/03/25 03:05:27;;;;;;;;;;;;;;;7.02;100.00;96244.53;4998573;28;19952;-70
2023/03/25 03:08:13;;;;;;;;;;;;;;;7.03;100.00;96251.53;5004050;28;19971;-71
2023/03/25 03:10:38;;;;;;;;;;;;;;;6.99;100.00;96255.34;5009890;28;19972;-73
2023/03/25 03:13:13;;;;;;;;;;;;;;;6.92;100.00;96247.00;4999550;28;19921;-70
2023/03/25 03:16:01;;;;;;;;;;;;;;;6.74;100.00;96246.56;5020325;28;19917;-73
2023/03/25 03:18:33;;;;;;;;;;;;;;;6.83;100.00;96247.97;5015801;28;19927;-73
2023/03/25 03:21:22;;;;;;;;;;;;;;;6.86;100.00;96255.44;5019712;28;20016;-73
2023/03/25 03:24:06;;;;;;;;;;;;;;;6.96;100.00;96256.81;5020366;28;19917;-72
2023/03/25 03:26:47;;;;;;;;;;;;;;;6.95;100.00;96254.44;5019913;28;19931;-71
2023/03/25 03:29:17;;;;;;;;;;;;;;;6.97;100.00;96263.03;5015363;28;19921;-72
2023/03/25 03:31:42;;;;;;;;;;;;;;;6.97;100.00;96250.25;5020738;28;20321;-73
2023/03/25 03:34:13;;;;;;;;;;;;;;;7.04;100.00;96244.16;5015491;28;19918;-72
2023/03/25 03:36:43;;;;;;;;;;;;;;;7.10;100.00;96237.28;5019225;28;19917;-73
2023/03/25 03:39:15;;;;;;;;;;;;;;;7.16;100.00;96241.31;4997733;28;19979;-73
2023/03/25 03:41:42;;;;;;;;;;;;;;;7.03;100.00;96253.47;5022086;28;19917;-73
2023/03/25 03:44:13;;;;;;;;;;;;;;;6.90;100.00;96266.41;5025584;28;19928;-70
2023/03/25 03:46:58;;;;;;;;;;;;;;;6.78;100.00;96270.00;5049971;28;19909;-70
2023/03/25 03:49:27;;;;;;;;;;;;;;;6.57;100.00;96294.78;4998743;28;20849;-74
2023/03/25 03:52:15;;;;;;;;;;;;;;;6.40;100.00;96312.22;5004172;28;19917;-73
2023/03/25 03:54:44;;;;;;;;;;;;;;;6.42;100.00;96349.94;5004744;28;19918;-73
2023/03/25 03:57:16;;;;;;;;;;;;;;;6.09;100.00;96310.22;4998912;28;20722;-73
2023/03/25 03:59:50;;;;;;;;;;;;;;;5.88;100.00;96304.94;5004574;28;19921;-74
2023/03/25 04:02:23;;;;;;;;;;;;;;;5.84;100.00;96334.75;4982493;28;19968;-73
2023/03/25 04:04:49;;;;;;;;;;;;;;;5.63;100.00;96336.84;5010567;28;20052;-72
2023/03/25 04:07:17;;;;;;;;;;;;;;;5.55;100.00;96366.50;5009560;28;19983;-73
2023/03/25 04:09:53;;;;;;;;;;;;;;;5.28;100.00;96372.66;5020798;28;19928;-73
2023/03/25 04:12:21;;;;;;;;;;;;;;;5.29;100.00;96376.94;4999675;28;20008;-71
2023/03/25 04:14:47;;;;;;;;;;;;;;;5.33;100.00;96366.97;5005022;28;20015;-73
2023/03/25 04:17:12;;;;;;;;;;;;;;;5.19;100.00;96370.03;5017315;28;20028;-73
2023/03/25 04:19:39;;;;;;;;;;;;;;;5.16;100.00;96359.84;5009301;28;20379;-73
2023/03/25 04:22:05;;;;;;;;;;;;;;;5.12;100.00;96367.88;5005951;28;19921;-70
2023/03/25 04:24:31;;;;;;;;;;;;;;;5.14;100.00;96356.69;5024472;28;19917;-73
2023/03/25 04:27:02;;;;;;;;;;;;;;;5.19;100.00;96355.69;5023344;28;20329;-75
2023/03/25 04:29:28;;;;;;;;;;;;;;;5.29;100.00;96357.94;5024633;28;19944;-74
2023/03/25 04:31:55;;;;;;;;;;;;;;;5.20;100.00;96358.03;5027796;28;20374;-73
2023/03/25 04:34:21;;;;;;;;;;;;;;;5.20;100.00;96357.25;5017532;28;19924;-75
2023/03/25 04:36:48;;;;;;;;;;;;;;;5.14;100.00;96360.19;5006196;28;19923;-74
2023/03/25 04:39:16;;;;;;;;;;;;;;;5.07;100.00;96367.31;5017943;28;19921;-74
2023/03/25 04:41:42;;;;;;;;;;;;;;;5.03;100.00;96375.34;5023260;28;20012;-74
2023/03/25 04:44:08;;;;;;;;;;;;;;;5.12;100.00;96361.66;5017306;28;19917;-74
2023/03/25 04:46:35;;;;;;;;;;;;;;;5.14;100.00;96353.97;5022573;28;19983;-74
2023/03/25 04:49:02;;;;;;;;;;;;;;;5.13;100.00;96363.25;5007604;28;19928;-74
2023/03/25 04:51:29;;;;;;;;;;;;;;;5.00;100.00;96377.94;4998549;28;20000;-74
2023/03/25 04:53:54;;;;;;;;;;;;;;;5.02;100.00;96386.53;5003255;28;20305;-74
2023/03/25 04:56:22;;;;;;;;;;;;;;;5.05;100.00;96378.50;4997187;28;19921;-74
2023/03/25 04:58:47;;;;;;;;;;;;;;;5.12;100.00;96365.16;5003074;28;19967;-73
2023/03/25 05:01:29;;;;;;;;;;;;;;;5.09;100.00;96381.34;4999027;28;19952;-75
2023/03/25 05:03:56;;;;;;;;;;;;;;;5.21;100.00;96367.78;5004891;28;19917;-74
2023/03/25 05:06:22;;;;;;;;;;;;;;;5.25;100.00;96373.31;5008391;28;30784;-74
2023/03/25 05:08:47;;;;;;;;;;;;;;;5.13;100.00;96374.09;5023232;28;19924;-74
2023/03/25 05:11:13;;;;;;;;;;;;;;;5.06;100.00;96377.41;5016445;28;19924;-74
2023/03/25 05:13:38;;;;;;;;;;;;;;;5.09;100.00;96381.34;5021732;28;20378;-73
2023/03/25 05:16:03;;;;;;;;;;;;;;;4.90;100.00;96388.13;5018657;28;20388;-68
2023/03/25 05:18:30;;;;;;;;;;;;;;;4.90;100.00;96404.41;5020475;28;19950;-73
2023/03/25 05:20:55;;;;;;;;;;;;;;;4.95;100.00;96389.81;5022484;28;19921;-73
2023/03/25 05:23:20;;;;;;;;;;;;;;;4.87;100.00;96377.16;5016601;28;20389;-72
2023/03/25 05:25:47;;;;;;;;;;;;;;;4.84;100.00;96377.81;5022164;28;20298;-71
2023/03/25 05:28:15;;;;;;;;;;;;;;;4.87;100.00;96388.00;4999223;28;19921;-70
2023/03/25 05:30:42;;;;;;;;;;;;;;;4.78;100.00;96405.16;5022349;28;20045;-71
2023/03/25 05:33:09;;;;;;;;;;;;;;;4.83;100.00;96406.88;5016788;28;19928;-70
2023/03/25 05:35:34;;;;;;;;;;;;;;;4.84;100.00;96407.66;5004365;28;19971;-71
2023/03/25 05:38:00;;;;;;;;;;;;;;;4.89;100.00;96412.88;5021763;28;19991;-71
2023/03/25 05:40:26;;;;;;;;;;;;;;;4.78;100.00;96415.22;5017072;28;20345;-71
2023/03/25 05:42:53;;;;;;;;;;;;;;;4.79;100.00;96406.75;5021598;28;19917;-72
2023/03/25 05:45:19;;;;;;;;;;;;;;;5.04;100.00;96406.81;5014736;28;20381;-70
2023/03/25 05:47:44;;;;;;;;;;;;;;;5.09;100.00;96411.22;5021743;28;20031;-71
2023/03/25 05:50:09;;;;;;;;;;;;;;;5.17;100.00;96411.09;5016512;28;19956;-72
2023/03/25 05:52:35;;;;;;;;;;;;;;;5.24;100.00;96415.16;5022968;28;20281;-74
2023/03/25 05:55:01;;;;;;;;;;;;;;;5.12;100.00;96415.97;5011177;28;19924;-70
2023/03/25 05:57:27;;;;;;;;;;;;;;;5.36;100.00;96415.97;4997341;28;19924;-69
2023/03/25 05:59:52;;;;;;;;;;;;;;;5.35;100.00;96429.91;4999978;28;19925;-70
2023/03/25 06:02:18;;;;;;;;;;;;;;;5.40;100.00;96423.44;5011032;28;19921;-68
2023/03/25 06:04:45;;;;;;;;;;;;;;;5.39;100.00;96430.03;4994300;28;19961;-70
2023/03/25 06:07:18;;;;;;;;;;;;;;;5.41;100.00;96412.25;5007921;28;20297;-70
2023/03/25 06:09:47;;;;;;;;;;;;;;;5.44;100.00;96414.28;5020014;28;20027;-71
2023/03/25 06:12:18;;;;;;;;;;;;;;;5.51;100.00;96416.41;5015670;28;20369;-70
2023/03/25 06:14:44;;;;;;;;;;;;;;;5.36;100.00;96426.03;5022099;28;19932;-69
2023/03/25 06:17:10;;;;;;;;;;;;;;;5.29;100.00;96421.16;5016527;28;19957;-71
2023/03/25 06:19:38;;;;;;;;;;;;;;;5.31;100.00;96418.94;5021876;28;19917;-72
2023/03/25 06:22:05;;;;;;;;;;;;;;;5.38;100.00;96421.06;5009483;28;19992;-69
2023/03/25 06:24:31;;;;;;;;;;;;;;;5.38;100.00;96423.78;5000924;28;19917;-72
2023/03/25 06:26:56;;;;;;;;;;;;;;;5.47;100.00;96429.88;5006123;28;19922;-70
2023/03/25 06:29:21;;;;;;;;;;;;;;;5.50;100.00;96433.84;5012793;28;20362;-72
2023/03/25 06:31:46;;;;;;;;;;;;;;;5.30;100.00;96441.00;5021147;28;19917;-72
2023/03/25 06:34:12;;;;;;;;;;;;;;;5.31;100.00;96435.22;5016506;28;20037;-71
2023/03/25 06:36:37;;;;;;;;;;;;;;;5.36;100.00;96439.63;5003799;28;19917;-72
2023/03/25 06:39:04;;;;;;;;;;;;;;;5.30;100.00;96421.97;5018403;28;19917;-69
2023/03/25 06:41:29;;;;;;;;;;;;;;;5.29;100.00;96429.31;5021283;28;19932;-70
2023/03/25 06:43:55;;;;;;;;;;;;;;;5.26;100.00;96418.38;5021796;28;19921;-69
2023/03/25 06:46:20;;;;;;;;;;;;;;;5.25;100.00;96427.63;4998378;28;20000;-72
2023/03/25 06:48:45;;;;;;;;;;;;;;;5.07;100.00;96427.03;5001549;28;20425;-72
2023/03/25 06:51:10;;;;;;;;;;;;;;;5.30;100.00;96430.91;4996071;28;20278;-72
2023/03/25 06:53:36;;;;;;;;;;;;;;;5.34;100.00;96423.66;5021279;28;19932;-73
2023/03/25 06:56:01;;;;;;;;;;;;;;;5.38;100.00;96412.13;5000385;28;20455;-71
2023/03/25 06:58:33;;;;;;;;;;;;;;;5.36;100.00;96417.91;4995843;28;19980;-73
2023/03/25 07:01:02;;;;;;;;;;;;;;;5.38;100.00;96412.91;4983740;28;20277;-73
2023/03/25 07:03:28;;;;;;;;;;;;;;;5.33;100.00;96419.38;4998170;28;19917;-72
2023/03/25 07:05:53;;;;;;;;;;;;;;;5.24;100.00;96415.16;5016067;28;19924;-73
2023/03/25 07:08:18;;;;;;;;;;;;;;;5.34;100.00;96412.00;4997769;28;19918;-73
2023/03/25 07:10:44;;;;;;;;;;;;;;;5.30;100.00;96416.53;5001296;28;20000;-72
2023/03/25 07:13:09;;;;;;;;;;;;;;;5.39;100.00;96406.34;4979686;28;20403;-74
2023/03/25 07:15:35;;;;;;;;;;;;;;;5.48;100.00;96415.19;4983642;28;19921;-73
2023/03/25 07:18:00;;;;;;;;;;;;;;;5.56;100.00;96416.19;4999738;28;19944;-73
2023/03/25 07:20:25;;;;;;;;;;;;;;;5.51;100.00;96419.94;4999964;28;19987;-74
2023/03/25 07:22:52;;;;;;;;;;;;;;;5.49;100.00;96415.97;5005692;28;19918;-72
2023/03/25 07:25:17;;;;;;;;;;;;;;;5.48;100.00;96417.91;4999437;28;19929;-73
2023/03/25 07:27:43;;;;;;;;;;;;;;;5.51;100.00;96425.38;5005097;28;19921;-73
2023/03/25 07:30:08;;;;;;;;;;;;;;;5.61;100.00;96412.47;4999583;28;19921;-72
2023/03/25 07:32:34;;;;;;;;;;;;;;;5.72;100.00;96432.59;5002120;28;19964;-72
2023/03/25 07:34:59;;;;;;;;;;;;;;;5.86;100.00;96422.16;5010549;28;19917;-71
2023/03/25 07:37:24;;;;;;;;;;;;;;;5.89;100.00;96416.03;4999727;28;19957;-71
2023/03/25 07:39:50;;;;;;;;;;;;;;;5.93;100.00;96437.91;5020975;28;19939;-72
2023/03/25 07:42:16;;;;;;;;;;;;;;;5.94;100.00;96417.72;5018565;28;19925;-70
2023/03/25 07:44:41;;;;;;;;;;;;;;;5.94;100.00;96412.28;5025347;28;19971;-71
2023/03/25 07:47:06;;;;;;;;;;;;;;;6.05;100.00;96420.78;5000213;28;20279;-72
2023/03/25 07:49:31;;;;;;;;;;;;;;;6.36;100.00;96411.97;5008773;28;19921;-72
2023/03/25 07:51:57;;;;;;;;;;;;;;;6.50;100.00;96414.31;5024588;28;19917;-72
2023/03/25 07:54:23;;;;;;;;;;;;;;;6.77;100.00;96415.41;5012692;28;20389;-72
2023/03/25 07:56:48;;;;;;;;;;;;;;;7.02;100.00;96412.53;5004175;28;20389;-71
2023/03/25 07:59:14;;;;;;;;;;;;;;;7.33;100.00;96416.41;4993778;28;20008;-71
2023/03/25 08:01:39;;;;;;;;;;;;;;;7.60;99.30;96425.63;5007351;28;20390;-69
2023/03/25 08:04:04;;;;;;;;;;;;;;;8.02;98.79;96423.06;5018866;28;19952;-69
2023/03/25 08:06:30;;;;;;;;;;;;;;;8.20;95.84;96420.72;5000562;28;19999;-71
2023/03/25 08:08:56;;;;;;;;;;;;;;;8.44;94.09;96421.63;5024279;28;19987;-73
2023/03/25 08:11:21;;;;;;;;;;;;;;;8.34;94.89;96424.91;5004739;28;19925;-71
2023/03/25 08:13:46;;;;;;;;;;;;;;;8.54;95.60;96412.88;5022176;28;20071;-73
2023/03/25 08:16:12;;;;;;;;;;;;;;;8.24;96.22;96415.34;4998376;28;19918;-73
2023/03/25 08:18:38;;;;;;;;;;;;;;;8.06;98.44;96414.97;5003817;28;19918;-73
2023/03/25 08:21:03;;;;;;;;;;;;;;;7.63;100.00;96414.00;5000152;28;19917;-70
2023/03/25 08:23:28;;;;;;;;;;;;;;;7.74;100.00;96409.63;5004603;28;19918;-72
2023/03/25 08:25:54;;;;;;;;;;;;;;;7.87;100.00;96402.09;5003681;28;20000;-73
2023/03/25 08:28:23;;;;;;;;;;;;;;;7.80;100.00;96402.72;4997844;28;19921;-70
2023/03/25 08:30:53;;;;;;;;;;;;;;;7.89;100.00;96405.25;5004851;28;20493;-72
2023/03/25 08:33:20;;;;;;;;;;;;;;;7.83;100.00;96407.47;4999127;28;19963;-71
2023/03/25 08:35:45;;;;;;;;;;;;;;;7.83;100.00;96398.50;5004955;28;19933;-70
2023/03/25 08:38:11;;;;;;;;;;;;;;;7.66;100.00;96405.13;4985087;28;20386;-70
2023/03/25 08:40:36;;;;;;;;;;;;;;;7.48;100.00;96404.72;5023472;28;20413;-73
2023/03/25 08:43:05;;;;;;;;;;;;;;;7.54;100.00;96392.38;5023077;28;19925;-71
2023/03/25 08:45:31;;;;;;;;;;;;;;;7.68;100.00;96402.06;5022301;28;19967;-72
2023/03/25 08:47:57;;;;;;;;;;;;;;;7.79;100.00;96405.81;5023752;28;20267;-72
2023/03/25 08:50:22;;;;;;;;;;;;;;;7.91;100.00;96404.91;4997318;28;20147;-71
2023/03/25 08:52:48;;;;;;;;;;;;;;;7.77;100.00;96384.34;5002997;28;20020;-72
2023/03/25 08:55:14;;;;;;;;;;;;;;;7.61;100.00;96392.56;4997697;28;20362;-71
2023/03/25 08:57:41;;;;;;;;;;;;;;;7.65;100.00;96404.34;5005958;28;20012;-72
2023/03/25 09:00:13;;;;;;;;;;;;;;;7.62;100.00;96404.28;5000676;28;19921;-71
2023/03/25 09:02:38;;;;;;;;;;;;;;;7.41;100.00;96401.81;5003522;28;19918;-70
2023/03/25 09:05:04;;;;;;;;;;;;;;;7.37;100.00;96406.41;5000099;28;19918;-69
2023/03/25 09:07:29;;;;;;;;;;;;;;;7.36;100.00;96393.91;5011702;28;20010;-72
2023/03/25 09:09:55;;;;;;;;;;;;;;;7.20;100.00;96405.63;5020770;28;19929;-72
2023/03/25 09:12:20;;;;;;;;;;;;;;;7.04;100.00;96408.34;5018031;28;19921;-72
2023/03/25 09:14:45;;;;;;;;;;;;;;;6.91;100.00;96408.75;5022919;28;19963;-70
2023/03/25 09:17:10;;;;;;;;;;;;;;;6.92;100.00;96407.63;5014648;28;19917;-73
2023/03/25 09:19:36;;;;;;;;;;;;;;;6.76;100.00;96400.22;5021267;28;19979;-72
2023/03/25 09:22:02;;;;;;;;;;;;;;;6.94;100.00;96397.19;5023719;28;19918;-73
2023/03/25 09:24:27;;;;;;;;;;;;;;;7.07;100.00;96387.78;5018314;28;20008;-71
2023/03/25 09:26:52;;;;;;;;;;;;;;;6.93;100.00;96399.09;5020095;28;19921;-73
2023/03/25 09:29:18;;;;;;;;;;;;;;;7.16;100.00;96399.28;5017623;28;20100;-74
2023/03/25 09:31:43;;;;;;;;;;;;;;;6.96;100.00;96394.88;5015837;28;19971;-72
2023/03/25 09:34:08;;;;;;;;;;;;;;;7.10;100.00;96397.97;5020578;28;19921;-72
2023/03/25 09:36:36;;;;;;;;;;;;;;;7.15;100.00;96396.91;5023368;28;19925;-72
2023/03/25 09:39:02;;;;;;;;;;;;;;;7.28;100.00;96398.41;5016550;28;19924;-73
2023/03/25 09:41:36;;;;;;;;;;;;;;;7.66;100.00;96405.13;5019137;28;19918;-71
2023/03/25 09:44:01;;;;;;;;;;;;;;;7.71;100.00;96395.91;5022533;28;20016;-73
2023/03/25 09:46:27;;;;;;;;;;;;;;;7.68;100.00;96396.59;5014661;28;19985;-74
2023/03/25 09:48:53;;;;;;;;;;;;;;;7.40;100.00;96398.31;5007242;28;19960;-74
2023/03/25 09:51:35;;;;;;;;;;;;;;;7.38;100.00;96391.63;4998015;28;19985;-71
2023/03/25 09:54:03;;;;;;;;;;;;;;;7.76;100.00;96390.16;4988106;28;19939;-73
2023/03/25 09:56:33;;;;;;;;;;;;;;;7.72;100.00;96384.63;5019583;28;19924;-73
2023/03/25 09:59:00;;;;;;;;;;;;;;;7.83;100.00;96387.59;5022307;28;19921;-73
2023/03/25 10:01:33;;;;;;;;;;;;;;;7.75;100.00;96374.97;5012460;28;19944;-70
2023/03/25 10:04:08;;;;;;;;;;;;;;;7.76;100.00;96381.97;5022197;28;19924;-73
2023/03/25 10:06:38;;;;;;;;;;;;;;;7.97;100.00;96376.97;5017361;28;19924;-75
2023/03/25 10:09:09;;;;;;;;;;;;;;;7.38;100.00;96378.00;5011351;28;19917;-70
2023/03/25 10:11:54;;;;;;;;;;;;;;;7.32;100.00;96376.69;5019730;28;19975;-75
2023/03/25 10:14:26;;;;;;;;;;;;;;;7.33;100.00;96379.06;5042195;28;20398;-70
2023/03/25 10:17:13;;;;;;;;;;;;;;;7.32;100.00;96379.44;5026753;28;19933;-75
2023/03/25 10:19:39;;;;;;;;;;;;;;;7.35;100.00;96370.56;5011468;28;19961;-74
2023/03/25 10:22:16;;;;;;;;;;;;;;;7.16;100.00;96374.75;4996633;28;20393;-72
2023/03/25 10:24:52;;;;;;;;;;;;;;;7.07;100.00;96374.16;5017502;28;20439;-73
2023/03/25 10:27:29;;;;;;;;;;;;;;;7.25;100.00;96380.81;5015718;28;19932;-74
2023/03/25 10:30:15;;;;;;;;;;;;;;;7.33;100.00;96368.19;5022378;28;19922;-74
2023/03/25 10:32:43;;;;;;;;;;;;;;;7.50;100.00;96371.66;5033062;28;19972;-70
2023/03/25 10:35:19;;;;;;;;;;;;;;;7.73;100.00;96367.13;5038002;28;20418;-73
2023/03/25 10:37:46;;;;;;;;;;;;;;;7.89;100.00;96369.81;5021022;28;19917;-74
2023/03/25 10:40:22;;;;;;;;;;;;;;;8.09;100.00;96367.88;4998828;28;19924;-74
2023/03/25 10:42:54;;;;;;;;;;;;;;;8.15;100.00;96365.66;5021899;28;19929;-73
2023/03/25 10:45:20;;;;;;;;;;;;;;;8.20;100.00;96379.81;5015546;28;19963;-72
2023/03/25 10:47:46;;;;;;;;;;;;;;;8.29;100.00;96368.69;5001499;28;19920;-73
2023/03/25 10:50:15;;;;;;;;;;;;;;;8.20;100.00;96374.34;4996659;28;19933;-73
2023/03/25 10:52:41;;;;;;;;;;;;;;;8.32;100.00;96370.69;5009398;28;20390;-72
2023/03/25 10:55:17;;;;;;;;;;;;;;;8.37;100.00;96369.59;5003592;28;19972;-72
2023/03/25 10:57:43;;;;;;;;;;;;;;;8.22;100.00;96374.78;5019785;28;20078;-72
2023/03/25 11:00:17;;;;;;;;;;;;;;;7.94;100.00;96376.91;4979872;28;19999;-72
2023/03/25 11:02:42;;;;;;;;;;;;;;;7.78;100.00;96387.88;4987041;28;19921;-73
2023/03/25 11:05:08;;;;;;;;;;;;;;;7.82;100.00;96389.53;5014111;28;19917;-72
2023/03/25 11:07:35;;;;;;;;;;;;;;;7.35;100.00;96392.34;5012920;28;20399;-73
2023/03/25 11:10:13;;;;;;;;;;;;;;;7.46;100.00;96391.44;5016786;28;19928;-74
2023/03/25 11:12:44;;;;;;;;;;;;;;;7.35;100.00;96398.59;5000574;28;19924;-74
2023/03/25 11:15:17;;;;;;;;;;;;;;;7.24;100.00;96395.59;4992990;28;20012;-71
2023/03/25 11:17:44;;;;;;;;;;;;;;;7.15;100.00;96405.06;4982446;28;20387;-73
2023/03/25 11:20:16;;;;;;;;;;;;;;;7.22;100.00;96391.63;4994402;28;19928;-73
2023/03/25 11:22:45;;;;;;;;;;;;;;;7.30;100.00;96398.84;5000746;28;19925;-71
2023/03/25 11:25:15;;;;;;;;;;;;;;;7.49;100.00;96405.50;4996378;28;19918;-73
2023/03/25 11:27:55;;;;;;;;;;;;;;;7.41;100.00;96405.34;5004948;28;19931;-73
2023/03/25 11:30:21;;;;;;;;;;;;;;;7.55;100.00;96396.72;5012596;28;19929;-73
2023/03/25 11:32:58;;;;;;;;;;;;;;;7.34;100.00;96402.44;5001283;28;19917;-73
2023/03/25 11:35:28;;;;;;;;;;;;;;;7.07;100.00;96404.13;5014607;28;19987;-72
2023/03/25 11:37:58;;;;;;;;;;;;;;;7.09;100.00;96407.28;5022420;28;19917;-72
2023/03/25 11:40:24;;;;;;;;;;;;;;;7.05;100.00;96407.19;4993237;28;20053;-72
2023/03/25 11:42:56;;;;;;;;;;;;;;;6.98;100.00;96407.00;5021826;28;19921;-72
2023/03/25 11:45:44;;;;;;;;;;;;;;;7.00;100.00;96403.94;5016049;28;20080;-71
2023/03/25 11:48:11;;;;;;;;;;;;;;;7.45;100.00;96406.22;5007887;28;19940;-72
2023/03/25 11:50:37;;;;;;;;;;;;;;;7.55;100.00;96417.72;5020421;28;19932;-72
2023/03/25 11:53:03;;;;;;;;;;;;;;;7.99;100.00;96412.09;5020311;28;19917;-72
2023/03/25 11:55:31;;;;;;;;;;;;;;;7.96;100.00;96410.88;4985268;28;19952;-72
2023/03/25 11:57:58;;;;;;;;;;;;;;;8.16;100.00;96411.69;5001105;28;19921;-72
2023/03/25 12:00:27;;;;;;;;;;;;;;;7.99;100.00;96418.31;4994870;28;20387;-73
2023/03/25 12:03:04;;;;;;;;;;;;;;;8.33;100.00;96412.41;5021068;28;19917;-72
2023/03/25 12:05:29;;;;;;;;;;;;;;;8.92;100.00;96413.97;5004517;28;20322;-74
2023/03/25 12:08:15;;;;;;;;;;;;;;;9.11;100.00;96404.94;5018689;28;19976;-72
2023/03/25 12:10:43;;;;;;;;;;;;;;;8.85;100.00;96399.41;5009492;28;20453;-72
2023/03/25 12:13:15;;;;;;;;;;;;;;;8.68;100.00;96406.91;4999436;28;20027;-72
2023/03/25 12:15:46;;;;;;;;;;;;;;;8.20;100.00;96409.81;5004403;28;19922;-72
2023/03/25 12:18:17;;;;;;;;;;;;;;;8.14;100.00;96399.53;4998151;28;19921;-71
2023/03/25 12:20:45;;;;;;;;;;;;;;;8.42;100.00;96397.41;5004387;28;20103;-72
2023/03/25 12:23:19;;;;;;;;;;;;;;;8.45;100.00;96403.34;4999402;28;19918;-72
2023/03/25 12:25:53;;;;;;;;;;;;;;;8.76;100.00;96407.81;5003797;28;20129;-73
2023/03/25 12:28:21;;;;;;;;;;;;;;;8.71;100.00;96408.09;4998211;28;20376;-75
2023/03/25 12:31:06;;;;;;;;;;;;;;;8.82;100.00;96403.63;5003012;28;19951;-71
2023/03/25 12:33:49;;;;;;;;;;;;;;;8.66;100.00;96390.09;5002217;28;19917;-72
2023/03/25 12:36:27;;;;;;;;;;;;;;;8.77;100.00;96380.16;5018136;28;20008;-72
2023/03/25 12:38:59;;;;;;;;;;;;;;;9.00;100.00;96365.69;5021316;28;20274;-71
2023/03/25 12:41:27;;;;;;;;;;;;;;;9.09;100.00;96366.28;5018433;28;20137;-71
2023/03/25 12:43:58;;;;;;;;;;;;;;;9.19;100.00;96376.56;5008680;28;19918;-71
2023/03/25 12:46:39;;;;;;;;;;;;;;;9.54;100.00;96369.28;4996879;28;20779;-71
2023/03/25 12:49:22;;;;;;;;;;;;;;;9.79;100.00;96361.44;5005886;28;19925;-69
2023/03/25 12:52:06;;;;;;;;;;;;;;;9.72;100.00;96364.91;4985958;28;19925;-72
2023/03/25 12:54:35;;;;;;;;;;;;;;;9.73;100.00;96350.03;5003535;28;19917;-73